createdAt,value
2018-01-14T10:45:54.855Z,93.80
2018-01-14T10:48:28.501Z,93.70
2018-01-14T10:51:02.976Z,92.50
2018-01-14T10:53:36.630Z,92.50
2018-01-14T10:56:10.359Z,92.60
2018-01-14T10:58:45.094Z,93.70
2018-01-14T11:01:24.628Z,93.60
2018-01-14T11:03:58.186Z,93.20
2018-01-14T11:06:31.931Z,93.10
2018-01-14T11:09:05.707Z,93.40
2018-01-14T11:11:39.533Z,92.50
2018-01-14T11:14:14.005Z,92.10
2018-01-14T11:16:48.585Z,91.40
2018-01-14T11:19:22.273Z,91.30
2018-01-14T11:21:55.873Z,91.70
2018-01-14T11:24:30.245Z,90.40
2018-01-14T11:27:03.829Z,90.30
2018-01-14T11:29:38.557Z,91.60
2018-01-14T11:32:12.175Z,92.10
2018-01-14T11:34:45.957Z,91.20
2018-01-14T11:37:20.429Z,90.30
2018-01-14T11:39:54.146Z,90.20
2018-01-14T11:42:27.698Z,89.10
2018-01-14T11:45:02.099Z,90.30
2018-01-14T11:47:35.851Z,90.10
2018-01-14T11:50:09.672Z,88.40
2018-01-14T11:52:43.464Z,89.40
2018-01-14T11:55:17.155Z,88.40
2018-01-14T11:57:50.760Z,88.70
2018-01-14T12:00:24.262Z,88.50
2018-01-14T12:02:57.963Z,89.00
2018-01-14T12:05:31.548Z,90.10
2018-01-14T12:08:05.151Z,90.60
2018-01-14T12:10:39.069Z,90.20
2018-01-14T12:13:12.749Z,90.40
2018-01-14T12:15:46.407Z,90.00
2018-01-14T12:18:20.143Z,90.70
2018-01-14T12:20:53.772Z,90.70
2018-01-14T12:23:27.367Z,89.80
2018-01-14T12:26:01.885Z,91.50
2018-01-14T12:28:35.571Z,91.40
2018-01-14T12:31:09.892Z,89.80
2018-01-14T12:47:11.491Z,87.50
2018-01-14T12:49:45.187Z,87.70
2018-01-14T12:52:18.971Z,88.60
2018-01-14T12:54:53.576Z,86.80
2018-01-14T12:57:27.305Z,86.70
2018-01-14T13:00:01.131Z,87.20
2018-01-14T13:02:34.988Z,85.20
2018-01-14T13:05:08.745Z,83.60
2018-01-14T13:07:42.625Z,84.50
2018-01-14T13:10:16.529Z,83.60
2018-01-14T13:12:50.203Z,82.30
2018-01-14T13:15:23.804Z,81.90
2018-01-14T13:17:57.366Z,82.90
2018-01-14T13:20:30.976Z,82.70
2018-01-14T13:23:04.563Z,85.40
2018-01-14T13:25:38.918Z,87.60
2018-01-14T13:28:12.640Z,87.10
2018-01-14T13:30:46.215Z,88.10
2018-01-14T13:33:19.764Z,88.50
2018-01-14T13:35:53.382Z,88.60
2018-01-14T13:38:27.782Z,88.70
2018-01-14T13:41:01.439Z,88.50
2018-01-14T13:43:35.157Z,87.90
2018-01-14T13:46:09.438Z,88.30
2018-01-14T13:48:42.976Z,88.20
2018-01-14T13:51:16.558Z,89.50
2018-01-14T13:53:50.088Z,90.20
2018-01-14T13:56:23.609Z,88.50
2018-01-14T13:58:57.258Z,87.70
2018-01-14T14:01:30.744Z,87.80
2018-01-14T14:04:05.366Z,88.00
2018-01-14T14:06:38.861Z,88.00
2018-01-14T14:09:12.394Z,87.90
2018-01-14T14:11:45.911Z,87.70
2018-01-14T14:14:19.498Z,87.10
2018-01-14T14:16:53.957Z,86.30
2018-01-14T14:19:27.760Z,86.30
2018-01-14T14:22:01.247Z,85.70
2018-01-14T14:24:34.773Z,86.00
2018-01-14T14:27:08.355Z,85.80
2018-01-14T14:29:41.995Z,84.40
2018-01-14T14:32:16.285Z,86.40
2018-01-14T14:34:49.967Z,86.40
2018-01-14T14:37:23.692Z,87.10
2018-01-14T14:39:57.333Z,86.50
2018-01-14T14:42:30.910Z,88.20
2018-01-14T14:45:05.230Z,87.00
2018-01-14T14:47:38.974Z,87.00
2018-01-14T14:50:12.584Z,86.70
2018-01-14T14:52:46.127Z,87.70
2018-01-14T14:55:19.692Z,87.90
2018-01-14T14:57:54.070Z,86.20
2018-01-14T15:00:27.639Z,86.20
2018-01-14T15:03:01.222Z,86.30
2018-01-14T15:05:34.798Z,86.80
2018-01-14T15:08:08.306Z,87.10
2018-01-14T15:10:41.876Z,86.00
2018-01-14T15:13:15.475Z,87.80
2018-01-14T15:15:49.166Z,85.80
2018-01-14T15:18:22.719Z,84.90
2018-01-14T15:20:56.330Z,85.10
2018-01-14T15:23:29.969Z,86.90
2018-01-14T15:26:03.644Z,86.90
2018-01-14T15:28:37.217Z,87.10
2018-01-14T15:31:11.084Z,87.70
2018-01-14T15:33:45.467Z,87.80
2018-01-14T15:36:19.996Z,88.10
2018-01-14T15:38:53.603Z,88.00
2018-01-14T15:41:27.283Z,88.30
2018-01-14T15:44:00.870Z,89.20
2018-01-14T15:46:34.393Z,90.30
2018-01-14T15:49:07.949Z,90.20
2018-01-14T15:51:41.585Z,90.40
2018-01-14T15:54:16.033Z,90.60
2018-01-14T15:56:50.573Z,91.00
2018-01-14T15:59:24.150Z,91.00
2018-01-14T16:01:57.706Z,91.20
2018-01-14T16:04:31.226Z,91.20
2018-01-14T16:07:04.826Z,91.10
2018-01-14T16:09:38.339Z,91.50
2018-01-14T16:12:12.054Z,90.90
2018-01-14T16:14:45.743Z,91.20
2018-01-14T16:17:20.043Z,91.70
2018-01-14T16:19:53.767Z,91.60
2018-01-14T16:22:27.381Z,91.90
2018-01-14T16:25:01.821Z,92.30
2018-01-14T16:27:35.506Z,92.30
2018-01-14T16:30:09.072Z,92.10
2018-01-14T16:32:42.829Z,92.30
2018-01-14T16:35:16.552Z,92.30
2018-01-14T16:37:50.103Z,92.40
2018-01-14T16:40:23.699Z,92.80
2018-01-14T16:42:57.600Z,92.70
2018-01-14T16:45:31.146Z,93.10
2018-01-14T16:48:04.788Z,93.10
2018-01-14T16:50:39.130Z,93.10
2018-01-14T16:53:13.437Z,93.00
2018-01-14T16:55:47.889Z,93.00
2018-01-14T16:58:21.673Z,92.90
2018-01-14T17:00:55.248Z,93.10
2018-01-14T17:03:28.785Z,93.10
2018-01-14T17:06:02.363Z,93.10
2018-01-14T17:08:35.929Z,93.70
2018-01-14T17:11:09.830Z,93.70
2018-01-14T17:13:43.398Z,93.80
2018-01-14T17:16:16.951Z,93.80
2018-01-14T17:18:51.279Z,93.90
2018-01-14T17:21:25.840Z,94.00
2018-01-14T17:23:59.544Z,94.00
2018-01-14T17:26:33.943Z,94.50
2018-01-14T17:29:07.537Z,94.50
2018-01-14T17:31:41.127Z,94.50
2018-01-14T17:34:14.642Z,94.70
2018-01-14T17:36:49.056Z,94.80
2018-01-14T17:39:22.624Z,94.80
2018-01-14T17:41:56.405Z,94.90
2018-01-14T17:44:30.028Z,95.10
2018-01-14T17:47:03.662Z,95.10
2018-01-14T17:49:37.172Z,95.10
2018-01-14T17:52:10.681Z,95.10
2018-01-14T17:54:44.291Z,95.00
2018-01-14T17:57:18.109Z,95.20
2018-01-14T17:59:52.415Z,95.40
2018-01-14T18:02:26.920Z,96.10
2018-01-14T18:05:00.721Z,96.10
2018-01-14T18:07:35.063Z,95.80
2018-01-14T18:10:08.896Z,95.70
2018-01-14T18:12:42.564Z,95.90
2018-01-14T18:15:16.396Z,95.70
2018-01-14T18:17:50.746Z,95.60
2018-01-14T18:20:24.615Z,95.60
2018-01-14T18:22:58.081Z,95.90
2018-01-14T18:25:32.017Z,96.60
2018-01-14T18:28:05.647Z,96.80
2018-01-14T18:30:39.701Z,96.50
2018-01-14T18:33:14.332Z,96.50
2018-01-14T18:35:48.100Z,96.50
2018-01-14T18:38:21.968Z,96.40
2018-01-14T18:40:55.943Z,96.20
2018-01-14T18:43:29.539Z,96.30
2018-01-14T18:46:09.773Z,96.80
2018-01-14T18:48:43.445Z,97.50
2018-01-14T18:51:17.031Z,97.70
2018-01-14T18:53:50.650Z,98.20
2018-01-14T18:56:24.329Z,98.00
2018-01-14T18:58:57.884Z,98.50
2018-01-14T19:01:32.226Z,98.70
2018-01-14T19:04:06.893Z,98.40
2018-01-14T19:06:40.521Z,98.30
2018-01-14T19:09:14.043Z,98.30
2018-01-14T19:11:48.347Z,97.50
2018-01-14T19:14:22.093Z,97.40
2018-01-14T19:16:55.693Z,97.00
2018-01-14T19:19:30.077Z,96.60
2018-01-14T19:22:03.620Z,96.60
2018-01-14T19:24:37.176Z,96.80
2018-01-14T19:27:10.891Z,96.80
2018-01-14T19:29:44.446Z,96.70
2018-01-14T19:32:18.840Z,96.60
2018-01-14T19:34:53.245Z,97.60
2018-01-14T19:37:26.807Z,97.20
2018-01-14T19:40:00.383Z,97.70
2018-01-14T19:42:34.826Z,97.30
2018-01-14T19:45:09.309Z,97.20
2018-01-14T19:47:43.142Z,97.10
2018-01-14T19:50:16.799Z,97.50
2018-01-14T19:52:50.397Z,97.60
2018-01-14T19:55:23.990Z,97.80
2018-01-14T19:57:57.604Z,97.40
2018-01-14T20:00:31.327Z,97.70
2018-01-14T20:03:04.903Z,97.80
2018-01-14T20:05:38.484Z,97.70
2018-01-14T20:08:12.196Z,97.70
2018-01-14T20:10:45.787Z,97.10
2018-01-14T20:13:19.306Z,96.60
2018-01-14T20:15:52.910Z,96.80
2018-01-14T20:18:27.330Z,97.20
2018-01-14T20:21:00.993Z,97.20
2018-01-14T20:23:34.684Z,97.80
2018-01-14T20:26:08.358Z,98.00
2018-01-14T20:28:41.957Z,98.50
2018-01-14T20:31:15.553Z,98.90
2018-01-14T20:33:49.060Z,98.90
2018-01-14T20:36:23.396Z,98.50
2018-01-14T20:38:57.854Z,99.20
2018-01-14T20:41:31.474Z,98.90
2018-01-14T20:44:05.007Z,99.00
2018-01-14T20:46:39.341Z,99.00
2018-01-14T20:49:12.914Z,98.90
2018-01-14T20:51:46.586Z,98.60
2018-01-14T20:54:20.174Z,99.00
2018-01-14T20:56:53.801Z,99.10
2018-01-14T20:59:27.350Z,99.10
2018-01-14T21:02:00.892Z,99.20
2018-01-14T21:04:34.493Z,99.20
2018-01-14T21:07:08.102Z,99.70
2018-01-14T21:09:41.679Z,99.90
2018-01-14T21:12:15.402Z,99.90
2018-01-14T21:14:48.989Z,99.90
2018-01-14T21:17:22.579Z,99.80
2018-01-14T21:19:56.901Z,99.90
2018-01-14T21:22:30.465Z,99.90
2018-01-14T21:25:04.153Z,99.90
2018-01-14T21:27:37.725Z,99.90
2018-01-14T21:30:11.494Z,99.90
2018-01-14T21:32:45.238Z,99.90
2018-01-14T21:35:19.583Z,99.90
2018-01-14T21:37:53.306Z,99.90
2018-01-14T21:40:26.882Z,99.90
2018-01-14T21:43:00.522Z,99.90
2018-01-14T21:45:34.135Z,99.90
2018-01-14T21:48:08.553Z,99.90
2018-01-14T21:50:42.181Z,99.90
2018-01-14T21:53:15.837Z,99.90
2018-01-14T21:55:49.422Z,99.90
2018-01-14T21:58:23.784Z,99.90
2018-01-14T22:00:57.546Z,99.90
2018-01-14T22:03:31.178Z,99.90
2018-01-14T22:06:04.747Z,99.80
2018-01-14T22:08:43.021Z,99.30
2018-01-14T22:11:17.783Z,99.00
2018-01-14T22:13:51.547Z,98.20
2018-01-14T22:16:27.734Z,98.00
2018-01-14T22:19:08.023Z,97.80
2018-01-14T22:21:51.256Z,98.00
2018-01-14T22:24:35.255Z,97.70
2018-01-14T22:27:13.723Z,97.70
2018-01-14T22:29:51.265Z,97.90
2018-01-14T22:32:25.253Z,97.80
2018-01-14T22:34:59.767Z,98.20
2018-01-14T22:37:35.010Z,98.10
2018-01-14T22:40:09.597Z,97.90
2018-01-14T22:42:43.323Z,97.90
2018-01-14T22:45:20.105Z,97.50
2018-01-14T22:47:54.482Z,97.80
2018-01-14T22:50:30.294Z,97.70
2018-01-14T22:53:04.892Z,98.20
2018-01-14T22:55:38.730Z,98.20
2018-01-14T22:58:12.778Z,98.70
2018-01-14T23:00:47.672Z,99.00
2018-01-14T23:03:21.582Z,98.90
2018-01-14T23:05:55.532Z,98.20
2018-01-14T23:08:29.535Z,97.70
2018-01-14T23:11:08.005Z,97.30
2018-01-14T23:13:41.700Z,96.90
2018-01-14T23:16:15.767Z,96.90
2018-01-14T23:18:50.159Z,97.40
2018-01-14T23:21:25.675Z,97.70
2018-01-14T23:24:01.535Z,97.50
2018-01-14T23:26:35.306Z,98.40
2018-01-14T23:29:09.928Z,98.10
2018-01-14T23:31:45.210Z,97.80
2018-01-14T23:34:19.930Z,97.90
2018-01-14T23:36:53.850Z,97.90
2018-01-14T23:39:27.879Z,97.70
2018-01-14T23:42:01.905Z,97.70
2018-01-14T23:44:38.876Z,98.00
2018-01-14T23:47:14.109Z,97.70
2018-01-14T23:49:49.097Z,97.20
2018-01-14T23:52:23.385Z,97.10
2018-01-14T23:54:57.283Z,96.60
2018-01-14T23:57:32.878Z,97.40
